Time;durP1;ratioP1;P1;durP2;ratioP2;P2;SDS_P1;SDS_P2;PMS_P1;PMS_P2;Temp;Humidity;BMP_temperature;BMP_pressure;BME280_temperature;BME280_humidity;BME280_pressure;Samples;Min_cycle;Max_cycle;Signal;HPM_P1;HPM_P2
2023/10/05 00:00:31;;;;;;;4.80;2.15;;;;;;;;;;10365590;28;20129;-77
2023/10/05 00:05:26;;;;;;;5.18;2.00;;;;;;;;;;10377301;28;20415;-77
2023/10/05 00:10:30;;;;;;;5.90;1.92;;;;;;;;;;10393609;28;20602;-76
2023/10/05 00:15:36;;;;;;;3.45;1.90;;;;;;;;;;10395063;28;20435;-77
2023/10/05 00:20:42;;;;;;;5.65;2.25;;;;;;;;;;10390656;28;20045;-77
2023/10/05 00:25:45;;;;;;;5.20;2.40;;;;;;;;;;10377605;28;20064;-77
2023/10/05 00:30:50;;;;;;;5.18;2.33;;;;;;;;;;10389842;28;20053;-77
2023/10/05 00:35:56;;;;;;;4.95;2.08;;;;;;;;;;10389386;28;20112;-77
2023/10/05 00:41:04;;;;;;;5.82;2.70;;;;;;;;;;10382852;28;20521;-77
2023/10/05 00:46:09;;;;;;;4.90;1.98;;;;;;;;;;10375776;28;21753;-77
2023/10/05 00:51:17;;;;;;;5.75;2.47;;;;;;;;;;10368377;28;20084;-77
2023/10/05 00:56:22;;;;;;;6.68;2.63;;;;;;;;;;10372228;28;20506;-77
2023/10/05 01:01:27;;;;;;;4.65;2.20;;;;;;;;;;10386052;28;20084;-76
2023/10/05 01:06:40;;;;;;;5.43;2.03;;;;;;;;;;10389603;28;20056;-77
2023/10/05 01:11:44;;;;;;;4.22;1.70;;;;;;;;;;10385108;28;20042;-77
2023/10/05 01:16:48;;;;;;;6.78;2.70;;;;;;;;;;10390897;28;20077;-77
2023/10/05 01:21:52;;;;;;;3.65;1.90;;;;;;;;;;10397441;28;20405;-77
2023/10/05 01:26:57;;;;;;;4.13;2.00;;;;;;;;;;10394363;28;20120;-77
2023/10/05 01:32:02;;;;;;;5.45;2.50;;;;;;;;;;10395647;28;20061;-76
2023/10/05 01:37:05;;;;;;;3.80;2.00;;;;;;;;;;10379934;28;20551;-77
2023/10/05 01:42:11;;;;;;;3.95;2.05;;;;;;;;;;10446942;22;20058;-77
2023/10/05 01:47:16;;;;;;;4.57;2.35;;;;;;;;;;10312020;28;20042;-77
2023/10/05 01:52:20;;;;;;;4.00;1.85;;;;;;;;;;10315960;28;20519;-77
2023/10/05 01:57:28;;;;;;;4.88;2.10;;;;;;;;;;10315110;28;20061;-78
2023/10/05 02:02:32;;;;;;;4.20;2.17;;;;;;;;;;10309555;28;20050;-77
2023/10/05 02:07:37;;;;;;;6.32;2.70;;;;;;;;;;10319055;28;20069;-77
2023/10/05 02:12:43;;;;;;;4.82;2.15;;;;;;;;;;10312255;28;20084;-77
2023/10/05 02:17:49;;;;;;;4.55;1.80;;;;;;;;;;10306521;28;20054;-77
2023/10/05 02:22:54;;;;;;;5.43;2.07;;;;;;;;;;10316127;28;20069;-77
2023/10/05 02:27:59;;;;;;;6.20;2.23;;;;;;;;;;10313045;28;20561;-77
2023/10/05 02:33:08;;;;;;;3.97;2.10;;;;;;;;;;10312462;28;20411;-77
2023/10/05 02:38:12;;;;;;;4.32;1.77;;;;;;;;;;10316707;28;20058;-77
2023/10/05 02:43:17;;;;;;;4.55;1.77;;;;;;;;;;10317104;28;20193;-77
2023/10/05 02:48:21;;;;;;;5.90;2.05;;;;;;;;;;10303510;28;20046;-77
2023/10/05 02:53:25;;;;;;;3.90;2.05;;;;;;;;;;10294311;28;20534;-77
2023/10/05 02:58:30;;;;;;;4.82;1.77;;;;;;;;;;10308400;28;20046;-77
2023/10/05 03:03:34;;;;;;;4.55;2.05;;;;;;;;;;10294854;28;20070;-77
2023/10/05 03:08:39;;;;;;;4.88;1.88;;;;;;;;;;10287232;28;20519;-77
2023/10/05 03:13:44;;;;;;;6.88;2.40;;;;;;;;;;10289682;28;20128;-77
2023/10/05 03:18:49;;;;;;;4.80;2.40;;;;;;;;;;10291086;28;20055;-77
2023/10/05 03:23:53;;;;;;;4.90;2.30;;;;;;;;;;10302242;28;20052;-77
2023/10/05 03:29:00;;;;;;;5.75;2.35;;;;;;;;;;10302427;28;20062;-77
2023/10/05 03:34:06;;;;;;;7.68;3.08;;;;;;;;;;10307183;28;20053;-77
2023/10/05 03:39:10;;;;;;;4.13;1.93;;;;;;;;;;10307005;28;20050;-77
2023/10/05 03:44:16;;;;;;;4.70;1.90;;;;;;;;;;10289398;28;20408;-77
2023/10/05 03:49:21;;;;;;;4.83;2.43;;;;;;;;;;10298290;28;20467;-77
2023/10/05 03:54:25;;;;;;;;;;;;;;;;;;10294840;28;20074;-77
2023/10/05 03:59:31;;;;;;;4.07;2.53;;;;;;;;;;10304023;28;20009;-77
2023/10/05 04:04:37;;;;;;;4.95;1.88;;;;;;;;;;10297475;28;20066;-78
2023/10/05 04:09:40;;;;;;;5.87;2.40;;;;;;;;;;10301937;28;20057;-77
2023/10/05 04:14:45;;;;;;;5.65;1.98;;;;;;;;;;10318820;28;20416;-77
2023/10/05 04:19:52;;;;;;;5.05;1.95;;;;;;;;;;10309504;28;20120;-77
2023/10/05 04:24:55;;;;;;;4.00;1.85;;;;;;;;;;10324819;28;20059;-77
2023/10/05 04:30:01;;;;;;;5.93;2.50;;;;;;;;;;10319848;28;20102;-77
2023/10/05 04:35:14;;;;;;;3.40;1.98;;;;;;;;;;10314544;28;20452;-77
2023/10/05 04:40:20;;;;;;;4.30;2.08;;;;;;;;;;10325079;28;20057;-77
2023/10/05 04:45:26;;;;;;;5.80;2.30;;;;;;;;;;10320824;28;20570;-77
2023/10/05 04:50:29;;;;;;;4.22;1.73;;;;;;;;;;10325940;28;20097;-77
2023/10/05 04:55:41;;;;;;;5.28;2.15;;;;;;;;;;10313243;28;20112;-77
2023/10/05 05:01:04;;;;;;;3.85;2.22;;;;;;;;;;10325713;28;20124;-78
2023/10/05 05:06:11;;;;;;;3.92;2.25;;;;;;;;;;10322238;28;20054;-77
2023/10/05 05:11:19;;;;;;;4.30;1.95;;;;;;;;;;10321512;28;20067;-77
2023/10/05 05:16:24;;;;;;;3.08;1.95;;;;;;;;;;10321215;28;20058;-77
2023/10/05 05:21:28;;;;;;;4.10;2.25;;;;;;;;;;10329921;28;20054;-77
2023/10/05 05:26:31;;;;;;;5.13;1.95;;;;;;;;;;10329380;28;20145;-77
2023/10/05 05:31:36;;;;;;;5.13;2.17;;;;;;;;;;10324146;28;20096;-77
2023/10/05 05:36:41;;;;;;;4.72;2.20;;;;;;;;;;10328031;28;20499;-77
2023/10/05 05:41:44;;;;;;;3.67;1.60;;;;;;;;;;10328462;28;20081;-77
2023/10/05 05:46:51;;;;;;;3.88;1.90;;;;;;;;;;10319879;28;20101;-78
2023/10/05 05:51:58;;;;;;;5.72;2.17;;;;;;;;;;10325488;28;20042;-77
2023/10/05 05:57:05;;;;;;;3.70;1.98;;;;;;;;;;10310193;28;20064;-77
2023/10/05 06:02:10;;;;;;;4.03;2.08;;;;;;;;;;10327934;28;20491;-77
2023/10/05 06:07:14;;;;;;;3.35;1.95;;;;;;;;;;10326807;28;20054;-77
2023/10/05 06:12:17;;;;;;;4.20;1.75;;;;;;;;;;10331048;28;20046;-77
2023/10/05 06:17:22;;;;;;;3.70;2.25;;;;;;;;;;10331561;28;20054;-77
2023/10/05 06:22:25;;;;;;;4.28;1.70;;;;;;;;;;10367765;28;20423;-77
2023/10/05 06:27:29;;;;;;;4.53;1.48;;;;;;;;;;10367658;28;20058;-77
2023/10/05 06:32:33;;;;;;;3.15;1.60;;;;;;;;;;10365942;28;20053;-77
2023/10/05 06:37:39;;;;;;;3.55;2.13;;;;;;;;;;10365550;28;20061;-77
2023/10/05 06:42:43;;;;;;;4.03;1.63;;;;;;;;;;10364606;28;20050;-77
2023/10/05 06:47:48;;;;;;;4.25;1.75;;;;;;;;;;10364088;28;20073;-77
2023/10/05 06:52:52;;;;;;;4.05;1.95;;;;;;;;;;10361948;28;20046;-77
2023/10/05 06:57:56;;;;;;;3.88;1.60;;;;;;;;;;10352459;28;20404;-77
2023/10/05 07:03:06;;;;;;;3.20;1.52;;;;;;;;;;10367735;28;20041;-77
2023/10/05 07:08:11;;;;;;;4.65;2.00;;;;;;;;;;10364001;28;20053;-77
2023/10/05 07:13:19;;;;;;;4.00;2.17;;;;;;;;;;10348174;28;20526;-78
2023/10/05 07:18:24;;;;;;;2.42;1.60;;;;;;;;;;10357733;28;20296;-77
2023/10/05 07:23:31;;;;;;;3.50;1.65;;;;;;;;;;10358659;28;20729;-77
2023/10/05 07:28:36;;;;;;;6.90;1.75;;;;;;;;;;10362435;28;20137;-77
2023/10/05 07:33:41;;;;;;;4.50;1.75;;;;;;;;;;10354866;28;20046;-77
2023/10/05 07:38:45;;;;;;;2.60;1.52;;;;;;;;;;10363826;28;20112;-77
2023/10/05 07:43:48;;;;;;;3.67;1.50;;;;;;;;;;10413830;23;20050;-77
2023/10/05 07:48:58;;;;;;;2.45;1.33;;;;;;;;;;10350185;28;20064;-77
2023/10/05 07:54:01;;;;;;;4.32;1.45;;;;;;;;;;10352650;28;20514;-77
2023/10/05 07:59:05;;;;;;;3.30;1.45;;;;;;;;;;10365725;28;20050;-77
2023/10/05 08:04:11;;;;;;;2.67;1.45;;;;;;;;;;10344401;28;20086;-77
2023/10/05 08:09:15;;;;;;;3.53;1.80;;;;;;;;;;10360795;28;20133;-76
2023/10/05 08:14:18;;;;;;;3.90;2.08;;;;;;;;;;10345439;28;20054;-77
2023/10/05 08:19:24;;;;;;;4.30;2.15;;;;;;;;;;10358655;28;20064;-77
2023/10/05 08:24:28;;;;;;;3.28;1.55;;;;;;;;;;10350518;28;20757;-77
2023/10/05 08:29:39;;;;;;;3.97;2.17;;;;;;;;;;10367779;28;20054;-77
2023/10/05 08:34:45;;;;;;;3.92;1.77;;;;;;;;;;10368589;28;20133;-77
2023/10/05 08:39:51;;;;;;;4.68;2.05;;;;;;;;;;10371438;28;20125;-76
2023/10/05 08:44:57;;;;;;;6.82;3.08;;;;;;;;;;10369739;28;20046;-76
2023/10/05 08:50:05;;;;;;;4.68;2.22;;;;;;;;;;10356798;28;20537;-76
2023/10/05 08:55:11;;;;;;;6.03;2.05;;;;;;;;;;10372362;28;20060;-77
2023/10/05 09:00:30;;;;;;;;;;;;;;;;;;10372803;28;20069;-77
2023/10/05 09:06:13;;;;;;;3.88;1.70;;;;;;;;;;10369043;28;20290;-77
2023/10/05 09:11:17;;;;;;;6.45;2.33;;;;;;;;;;10367421;28;20466;-77
2023/10/05 09:16:30;;;;;;;4.38;1.83;;;;;;;;;;10365126;28;20058;-77
2023/10/05 09:22:12;;;;;;;7.57;2.38;;;;;;;;;;10359212;28;20132;-76
2023/10/05 09:27:17;;;;;;;5.07;2.28;;;;;;;;;;10350003;28;20041;-77
2023/10/05 09:32:25;;;;;;;7.50;2.35;;;;;;;;;;10367881;28;20049;-77
2023/10/05 09:37:33;;;;;;;6.88;2.42;;;;;;;;;;10368244;28;20073;-77
2023/10/05 09:42:40;;;;;;;7.63;2.00;;;;;;;;;;10355381;28;20054;-76
2023/10/05 09:47:46;;;;;;;3.22;1.50;;;;;;;;;;10360276;28;20057;-77
2023/10/05 09:52:52;;;;;;;5.40;2.13;;;;;;;;;;10366410;28;20129;-76
2023/10/05 09:57:56;;;;;;;4.38;1.83;;;;;;;;;;10369781;28;20395;-77
2023/10/05 10:03:01;;;;;;;6.57;2.17;;;;;;;;;;10368780;28;20064;-77
2023/10/05 10:08:12;;;;;;;5.43;1.98;;;;;;;;;;10368658;28;20046;-77
2023/10/05 10:13:16;;;;;;;3.97;1.70;;;;;;;;;;10369578;28;20128;-76
2023/10/05 10:18:30;;;;;;;4.43;1.58;;;;;;;;;;10361425;28;20708;-76
2023/10/05 10:23:38;;;;;;;5.50;2.10;;;;;;;;;;10365714;28;20042;-77
2023/10/05 10:28:49;;;;;;;4.13;1.63;;;;;;;;;;10351407;28;20045;-76
2023/10/05 10:34:09;;;;;;;7.63;1.95;;;;;;;;;;10366675;28;20046;-76
2023/10/05 10:39:23;;;;;;;6.53;2.20;;;;;;;;;;10366961;28;20069;-77
2023/10/05 10:44:26;;;;;;;5.35;1.77;;;;;;;;;;10361771;28;20534;-76
2023/10/05 10:49:30;;;;;;;4.47;1.95;;;;;;;;;;10367053;28;20061;-76
2023/10/05 10:54:37;;;;;;;3.22;1.60;;;;;;;;;;10365406;28;20038;-76
2023/10/05 10:59:42;;;;;;;4.53;1.50;;;;;;;;;;10366162;28;20065;-76
2023/10/05 11:04:47;;;;;;;4.53;1.90;;;;;;;;;;10359147;28;20539;-77
2023/10/05 11:10:06;;;;;;;;;;;;;;;;;;10356633;28;20452;-77
2023/10/05 11:15:11;;;;;;;3.33;1.25;;;;;;;;;;10361339;28;19995;-77
2023/10/05 11:20:25;;;;;;;3.88;2.03;;;;;;;;;;10354564;28;20050;-76
2023/10/05 11:25:33;;;;;;;2.63;1.00;;;;;;;;;;10342385;28;20238;-76
2023/10/05 11:30:42;;;;;;;6.50;2.30;;;;;;;;;;10350808;28;20133;-76
2023/10/05 11:35:49;;;;;;;3.97;1.48;;;;;;;;;;10364849;28;20057;-76
2023/10/05 11:40:56;;;;;;;7.28;2.20;;;;;;;;;;10363185;28;20058;-77
2023/10/05 11:46:12;;;;;;;3.25;1.52;;;;;;;;;;10358111;28;20136;-76
2023/10/05 11:51:19;;;;;;;4.53;1.80;;;;;;;;;;10354246;28;20499;-77
2023/10/05 11:56:30;;;;;;;3.28;1.40;;;;;;;;;;10359532;28;20062;-76
2023/10/05 12:01:34;;;;;;;5.97;1.90;;;;;;;;;;10364707;28;20049;-77
2023/10/05 12:06:38;;;;;;;6.93;2.15;;;;;;;;;;10348742;28;20092;-76
2023/10/05 12:11:45;;;;;;;4.00;1.70;;;;;;;;;;10347272;28;20050;-76
2023/10/05 12:16:48;;;;;;;4.20;2.08;;;;;;;;;;10338907;28;20137;-76
2023/10/05 12:21:51;;;;;;;5.85;1.80;;;;;;;;;;10349431;28;20082;-76
2023/10/05 12:26:59;;;;;;;4.88;2.20;;;;;;;;;;10349316;28;20133;-76
2023/10/05 12:32:08;;;;;;;4.78;2.05;;;;;;;;;;10364943;28;20065;-77
2023/10/05 12:37:17;;;;;;;4.05;1.70;;;;;;;;;;10364669;28;20760;-76
2023/10/05 12:42:22;;;;;;;4.50;2.20;;;;;;;;;;10343333;28;20616;-76
2023/10/05 12:47:28;;;;;;;6.28;1.90;;;;;;;;;;10353597;28;20515;-76
2023/10/05 12:52:31;;;;;;;5.47;1.85;;;;;;;;;;10355088;28;20418;-76
2023/10/05 12:57:38;;;;;;;4.90;1.83;;;;;;;;;;10354745;28;20137;-77
2023/10/05 13:02:42;;;;;;;4.68;1.60;;;;;;;;;;10350441;28;20054;-76
2023/10/05 13:07:46;;;;;;;4.13;1.60;;;;;;;;;;10345875;28;20129;-76
2023/10/05 13:12:52;;;;;;;5.60;2.00;;;;;;;;;;10319539;28;20158;-76
2023/10/05 13:17:56;;;;;;;3.95;1.80;;;;;;;;;;10324835;28;20137;-76
2023/10/05 13:23:01;;;;;;;5.10;1.85;;;;;;;;;;10318509;28;20054;-76
2023/10/05 13:28:10;;;;;;;3.83;1.60;;;;;;;;;;10329398;28;20077;-76
2023/10/05 13:33:17;;;;;;;3.00;1.25;;;;;;;;;;10350575;28;20057;-77
2023/10/05 13:38:27;;;;;;;3.15;1.42;;;;;;;;;;10370307;28;20049;-76
2023/10/05 13:43:32;;;;;;;4.28;1.27;;;;;;;;;;10362630;28;20045;-76
2023/10/05 13:48:39;;;;;;;4.50;1.80;;;;;;;;;;10355648;28;20440;-76
2023/10/05 13:53:45;;;;;;;5.07;2.00;;;;;;;;;;10347101;28;20533;-76
2023/10/05 13:58:51;;;;;;;3.88;1.45;;;;;;;;;;10369569;28;20133;-76
2023/10/05 14:03:54;;;;;;;6.57;2.00;;;;;;;;;;10353314;28;20066;-76
2023/10/05 14:08:59;;;;;;;3.67;1.48;;;;;;;;;;10355050;28;20054;-76
2023/10/05 14:14:05;;;;;;;3.67;1.75;;;;;;;;;;10342102;28;20056;-76
2023/10/05 14:19:09;;;;;;;7.03;2.10;;;;;;;;;;10344129;28;20046;-76
2023/10/05 14:24:17;;;;;;;5.25;2.33;;;;;;;;;;10354845;28;20054;-76
2023/10/05 14:29:24;;;;;;;4.00;1.60;;;;;;;;;;10357425;28;20061;-76
2023/10/05 14:34:27;;;;;;;7.63;2.20;;;;;;;;;;10342220;28;20077;-76
2023/10/05 14:39:34;;;;;;;4.38;1.70;;;;;;;;;;10348093;28;20128;-76
2023/10/05 14:44:40;;;;;;;3.65;1.48;;;;;;;;;;10365512;28;20073;-77
2023/10/05 14:49:44;;;;;;;4.72;1.30;;;;;;;;;;10363624;28;20056;-77
2023/10/05 14:54:47;;;;;;;4.38;1.75;;;;;;;;;;10347061;28;20125;-77
2023/10/05 14:59:53;;;;;;;7.70;2.08;;;;;;;;;;10365467;28;20053;-76
2023/10/05 15:04:57;;;;;;;3.90;1.70;;;;;;;;;;10367631;28;20060;-76
2023/10/05 15:10:01;;;;;;;6.30;1.60;;;;;;;;;;10344930;28;20543;-76
2023/10/05 15:15:09;;;;;;;3.15;1.30;;;;;;;;;;10359808;28;20053;-76
2023/10/05 15:20:16;;;;;;;4.43;1.65;;;;;;;;;;10365360;28;20049;-76
2023/10/05 15:25:21;;;;;;;1.95;1.25;;;;;;;;;;10354303;28;20057;-76
2023/10/05 15:30:25;;;;;;;3.35;1.63;;;;;;;;;;10358687;28;20145;-76
2023/10/05 15:35:31;;;;;;;5.05;1.55;;;;;;;;;;10354828;28;20450;-76
2023/10/05 15:40:35;;;;;;;3.17;1.45;;;;;;;;;;10347203;28;20050;-76
2023/10/05 15:45:40;;;;;;;5.13;1.42;;;;;;;;;;10363925;28;20108;-76
2023/10/05 15:50:45;;;;;;;2.20;1.30;;;;;;;;;;10357064;28;20049;-76
2023/10/05 15:55:48;;;;;;;2.47;1.20;;;;;;;;;;10348533;28;20414;-76
2023/10/05 16:00:55;;;;;;;4.50;1.42;;;;;;;;;;10358756;28;20088;-76
2023/10/05 16:05:59;;;;;;;2.60;1.17;;;;;;;;;;10339967;28;20495;-76
2023/10/05 16:11:05;;;;;;;3.08;1.15;;;;;;;;;;10358788;28;20050;-76
2023/10/05 16:16:10;;;;;;;2.25;1.00;;;;;;;;;;10353018;28;20046;-76
2023/10/05 16:21:14;;;;;;;3.63;1.67;;;;;;;;;;10333529;28;20400;-76
2023/10/05 16:26:18;;;;;;;2.97;1.15;;;;;;;;;;10340627;28;20293;-76
2023/10/05 16:31:22;;;;;;;3.60;1.52;;;;;;;;;;10359406;28;20125;-76
2023/10/05 16:36:26;;;;;;;2.50;1.10;;;;;;;;;;10364291;28;20042;-77
2023/10/05 16:41:29;;;;;;;1.90;1.00;;;;;;;;;;10364737;28;20050;-77
2023/10/05 16:46:34;;;;;;;1.52;1.00;;;;;;;;;;10347582;28;20050;-77
2023/10/05 16:51:37;;;;;;;1.65;0.90;;;;;;;;;;10371364;28;20111;-77
2023/10/05 16:56:42;;;;;;;7.28;1.45;;;;;;;;;;10358908;28;20046;-77
2023/10/05 17:01:55;;;;;;;2.47;0.70;;;;;;;;;;10367829;28;20046;-77
2023/10/05 17:06:58;;;;;;;1.48;0.82;;;;;;;;;;10363681;28;20042;-76
2023/10/05 17:12:02;;;;;;;1.70;0.90;;;;;;;;;;10362364;28;20129;-77
2023/10/05 17:17:07;;;;;;;2.53;1.20;;;;;;;;;;10369715;28;20042;-76
2023/10/05 17:22:10;;;;;;;2.63;0.90;;;;;;;;;;10351036;28;20121;-77
2023/10/05 17:27:14;;;;;;;2.25;0.90;;;;;;;;;;10362273;28;20061;-77
2023/10/05 17:32:19;;;;;;;2.83;1.10;;;;;;;;;;10365956;28;20054;-77
2023/10/05 17:37:27;;;;;;;3.47;1.90;;;;;;;;;;10363337;28;20491;-76
2023/10/05 17:42:30;;;;;;;3.20;1.70;;;;;;;;;;10363506;28;20053;-77
2023/10/05 17:47:35;;;;;;;2.97;2.05;;;;;;;;;;10363536;28;20042;-77
2023/10/05 17:52:39;;;;;;;4.78;2.05;;;;;;;;;;10363988;28;20050;-77
2023/10/05 17:57:42;;;;;;;4.85;2.65;;;;;;;;;;10347636;28;20045;-77
2023/10/05 18:02:47;;;;;;;4.28;2.28;;;;;;;;;;10359892;28;20633;-77
2023/10/05 18:07:50;;;;;;;4.25;2.20;;;;;;;;;;10364996;28;20038;-77
2023/10/05 18:12:53;;;;;;;4.00;2.35;;;;;;;;;;10358777;28;20069;-77
2023/10/05 18:17:59;;;;;;;3.65;2.15;;;;;;;;;;10353405;28;20577;-77
2023/10/05 18:23:04;;;;;;;6.25;2.25;;;;;;;;;;10358544;28;20535;-77
2023/10/05 18:28:09;;;;;;;5.13;2.38;;;;;;;;;;10357874;28;20550;-77
2023/10/05 18:33:14;;;;;;;3.60;2.08;;;;;;;;;;10362259;28;20056;-77
2023/10/05 18:38:17;;;;;;;6.30;2.88;;;;;;;;;;10361986;28;20491;-77
2023/10/05 18:43:21;;;;;;;5.60;3.15;;;;;;;;;;10361660;28;20062;-77
2023/10/05 18:48:29;;;;;;;5.05;2.40;;;;;;;;;;10365683;28;20141;-76
2023/10/05 18:53:32;;;;;;;4.05;2.00;;;;;;;;;;10358619;28;20042;-76
2023/10/05 18:58:36;;;;;;;3.00;1.92;;;;;;;;;;10359775;28;20521;-76
2023/10/05 19:03:41;;;;;;;2.42;1.70;;;;;;;;;;10355987;28;20066;-76
2023/10/05 19:08:44;;;;;;;3.25;1.77;;;;;;;;;;10348242;28;20497;-76
2023/10/05 19:13:48;;;;;;;2.97;1.83;;;;;;;;;;10360784;28;20046;-77
2023/10/05 19:18:53;;;;;;;4.15;2.03;;;;;;;;;;10361230;28;20077;-76
2023/10/05 19:23:56;;;;;;;3.63;1.70;;;;;;;;;;10352234;28;20054;-77
2023/10/05 19:29:00;;;;;;;2.78;1.77;;;;;;;;;;10340482;28;20046;-76
2023/10/05 19:34:05;;;;;;;3.25;1.67;;;;;;;;;;10359896;28;20125;-76
2023/10/05 19:39:10;;;;;;;2.55;1.67;;;;;;;;;;10360733;28;20205;-76
2023/10/05 19:44:14;;;;;;;4.55;2.17;;;;;;;;;;10402576;23;20510;-77
2023/10/05 19:49:24;;;;;;;6.05;2.55;;;;;;;;;;10321380;28;20062;-77
2023/10/05 19:54:29;;;;;;;2.40;1.60;;;;;;;;;;10323824;28;20058;-77
2023/10/05 19:59:32;;;;;;;1.48;1.35;;;;;;;;;;10313472;28;20051;-78
2023/10/05 20:04:38;;;;;;;2.40;1.27;;;;;;;;;;10316077;28;20535;-77
2023/10/05 20:09:44;;;;;;;2.97;1.65;;;;;;;;;;10309058;28;20047;-77
2023/10/05 20:14:47;;;;;;;2.47;1.90;;;;;;;;;;10323118;28;20057;-77
2023/10/05 20:19:53;;;;;;;2.50;1.40;;;;;;;;;;10317353;28;20076;-77
2023/10/05 20:24:57;;;;;;;3.67;1.73;;;;;;;;;;10323191;28;20459;-77
2023/10/05 20:30:00;;;;;;;2.40;1.35;;;;;;;;;;10325034;28;20046;-77
2023/10/05 20:35:06;;;;;;;4.35;1.85;;;;;;;;;;10331584;28;20667;-77
2023/10/05 20:40:11;;;;;;;3.17;1.70;;;;;;;;;;10327898;28;20047;-77
2023/10/05 20:45:15;;;;;;;3.83;1.58;;;;;;;;;;10313947;28;20082;-77
2023/10/05 20:50:19;;;;;;;2.50;1.38;;;;;;;;;;10327497;28;20047;-77
2023/10/05 20:55:24;;;;;;;2.25;1.52;;;;;;;;;;10323313;28;20051;-77
2023/10/05 21:00:28;;;;;;;2.45;1.60;;;;;;;;;;10320000;28;20081;-77
2023/10/05 21:05:34;;;;;;;4.03;2.03;;;;;;;;;;10329434;28;20502;-77
2023/10/05 21:10:37;;;;;;;2.65;1.70;;;;;;;;;;10328465;28;20099;-77
2023/10/05 21:15:40;;;;;;;3.25;1.70;;;;;;;;;;10328836;28;20058;-77
2023/10/05 21:20:45;;;;;;;1.45;1.17;;;;;;;;;;10329730;28;20129;-77
2023/10/05 21:25:50;;;;;;;3.80;1.92;;;;;;;;;;10317815;28;20702;-77
2023/10/05 21:30:54;;;;;;;5.22;1.73;;;;;;;;;;10325323;28;20070;-77
2023/10/05 21:35:59;;;;;;;3.85;1.80;;;;;;;;;;10326459;28;20055;-77
2023/10/05 21:41:03;;;;;;;3.50;1.70;;;;;;;;;;10322044;28;20050;-77
2023/10/05 21:46:07;;;;;;;3.15;1.52;;;;;;;;;;10332984;28;20069;-77
2023/10/05 21:51:11;;;;;;;1.85;1.20;;;;;;;;;;10309388;28;20049;-77
2023/10/05 21:56:15;;;;;;;4.18;1.95;;;;;;;;;;10306441;28;20112;-77
2023/10/05 22:01:22;;;;;;;3.97;1.88;;;;;;;;;;10315410;28;20061;-77
2023/10/05 22:06:27;;;;;;;2.60;1.65;;;;;;;;;;10327619;28;20061;-77
2023/10/05 22:11:32;;;;;;;;;;;;;;;;;;10329388;28;20093;-77
2023/10/05 22:16:35;;;;;;;1.55;0.80;;;;;;;;;;10326263;28;19968;-77
2023/10/05 22:21:40;;;;;;;1.95;0.98;;;;;;;;;;10316226;28;20054;-77
2023/10/05 22:26:43;;;;;;;2.60;1.35;;;;;;;;;;10298470;28;20086;-77
2023/10/05 22:31:47;;;;;;;4.18;1.65;;;;;;;;;;10325943;28;20096;-77
2023/10/05 22:36:51;;;;;;;2.85;1.67;;;;;;;;;;10324970;28;20050;-77
2023/10/05 22:41:55;;;;;;;3.67;1.80;;;;;;;;;;10323737;28;20051;-77
2023/10/05 22:46:59;;;;;;;2.53;1.58;;;;;;;;;;10326459;28;20652;-77
2023/10/05 22:52:04;;;;;;;3.53;1.88;;;;;;;;;;10321018;28;20046;-77
2023/10/05 22:57:07;;;;;;;2.45;1.48;;;;;;;;;;10326028;28;20122;-77
2023/10/05 23:02:14;;;;;;;3.53;1.48;;;;;;;;;;10325899;28;20471;-77
2023/10/05 23:07:18;;;;;;;2.17;1.70;;;;;;;;;;10305944;28;20061;-77
2023/10/05 23:12:22;;;;;;;3.25;1.67;;;;;;;;;;10322466;28;20054;-77
2023/10/05 23:17:27;;;;;;;2.70;1.25;;;;;;;;;;10306393;28;20542;-77
2023/10/05 23:22:32;;;;;;;2.70;1.38;;;;;;;;;;10316529;28;20053;-77
2023/10/05 23:27:35;;;;;;;1.45;1.10;;;;;;;;;;10317753;28;20047;-77
2023/10/05 23:32:39;;;;;;;3.15;1.50;;;;;;;;;;10309198;28;20126;-77
2023/10/05 23:37:50;;;;;;;1.75;0.88;;;;;;;;;;10313426;28;20137;-77
2023/10/05 23:42:54;;;;;;;1.60;0.90;;;;;;;;;;10320402;28;20411;-77
2023/10/05 23:47:58;;;;;;;1.92;1.00;;;;;;;;;;10324211;28;20046;-77
2023/10/05 23:53:03;;;;;;;1.45;1.05;;;;;;;;;;10318285;28;20050;-77
2023/10/05 23:58:07;;;;;;;1.70;0.90;;;;;;;;;;10310735;28;20042;-77
